ΕΜΥ, Εθνική Μετεωρολογική Υπηρεσία - Δελτία Καιρού, Προγνώσεις

ΑΕΡΟΝΑΥΤΙΛΙΑ

GREEK AIRPORTS CODES

LGSA 051620Z 00000KT 9999 FEW025 15/11 Q1019=

EUROPEAN AIRPORTS CODES

LPPT 051630Z 06013KT 9999 FEW020 BKN025 15/11 Q1013=